Flight Track Log - Related Links

Times and Time Zones

All times are in EDT time to prevent confusion due to time zone crossing. See the DAL268 flight status page for this flight to view local times or setup timezone preferences in your user account.

Time Position Orientation Groundspeed Altitude Reporting Facility
EDT Latitude Longitude Course Direction KTS MPH feet Rate Location/Type
Mon 06:40:36 PM 33.6578 -84.4956 340° North 447 514 2,700  Level Atlanta Center
Mon 06:41:36 PM 33.6908 -84.5731 297° West 340 391 4,500 2,300 Climbing Atlanta Center
Mon 06:42:00 PM 33.8412 -84.1746 320° Northwest  Level FlightAware Approximate
Mon 06:42:36 PM 33.7617 -84.5861 351° North 237 273 7,300  Level Atlanta Center
Mon 06:43:00 PM 33.9380 -84.2688 339° North  Level FlightAware Approximate
Mon 06:43:36 PM 33.8411 -84.5589 16° North 302 348 9,700  Level Atlanta Center
Mon 06:44:00 PM 34.0548 -84.3218 339° North  Level FlightAware Approximate
Mon 06:45:00 PM 34.1727 -84.3675 340° North  Level FlightAware Approximate
Mon 06:45:36 PM 34.0169 -84.4547 26° Northeast 350 403 12,300  Level Atlanta Center
Mon 06:46:36 PM 34.1192 -84.4453 North 367 422 15,000 2,250 Climbing Atlanta Center
Mon 06:47:36 PM 34.2361 -84.4283 North 396 456 16,800 1,850 Climbing Atlanta Center
Mon 06:48:36 PM 34.3489 -84.4186 North 402 463 18,700 1,700 Climbing Atlanta Center
Mon 06:49:36 PM 34.4636 -84.4167 North 415 478 20,200 1,550 Climbing Atlanta Center
Mon 06:50:36 PM 34.5847 -84.4147 North 421 484 21,800 1,600 Climbing Atlanta Center
Mon 06:51:36 PM 34.7058 -84.4103 North 426 490 23,400 1,350 Climbing Atlanta Center
Mon 06:52:36 PM 34.8289 -84.4081 North 432 497 24,500 1,050 Climbing Atlanta Center
Mon 06:53:36 PM 34.9519 -84.4061 North 438 504 25,500 1,050 Climbing Atlanta Center
Mon 06:54:36 PM 35.0792 -84.4042 North 443 510 26,600 1,300 Climbing Atlanta Center
Mon 06:55:36 PM 35.2067 -84.3972 North 448 516 28,100 1,750 Climbing Atlanta Center
Mon 06:56:36 PM 35.3256 -84.3467 19° North 443 510 30,100 1,250 Climbing Atlanta Center
Mon 06:57:36 PM 35.4447 -84.2936 20° North 443 510 30,600 800 Climbing Atlanta Center
Mon 06:58:36 PM 35.5533 -84.2456 20° North 449 517 31,700 800 Climbing Atlanta Center
Mon 06:59:36 PM 35.6494 -84.1461 40° Northeast 443 510 32,200 550 Climbing Atlanta Center
Mon 07:00:36 PM 35.7350 -84.0311 47° Northeast 443 510 32,800 400 Climbing Atlanta Center
Mon 07:01:36 PM 35.8225 -83.9133 47° Northeast 448 516 33,000 100 Climbing Atlanta Center
Mon 07:02:36 PM 35.9058 -83.7978 48° Northeast 453 521 33,000  Level Atlanta Center
Mon 07:03:36 PM 35.9911 -83.6794 48° Northeast 453 521 33,000  Level Atlanta Center
Mon 07:04:36 PM 36.0761 -83.5633 48° Northeast 453 521 33,000  Level Atlanta Center
Mon 07:05:36 PM 36.1672 -83.4344 49° Northeast 453 521 33,000  Level Atlanta Center
Mon 07:06:36 PM 36.2481 -83.3206 49° Northeast 447 514 33,000  Level Atlanta Center
Mon 07:07:36 PM 36.3308 -83.2064 48° Northeast 447 514 33,000  Level Atlanta Center
Mon 07:09:01 PM 36.4442 -83.0494 48° Northeast 453 521 33,000  Level Indianapolis Center
Mon 07:10:03 PM 36.5289 -82.9325 48° Northeast 458 527 33,000  Level Indianapolis Center
Mon 07:11:05 PM 36.6244 -82.7953 49° Northeast 452 520 33,000  Level Indianapolis Center
Mon 07:12:07 PM 36.7064 -82.6775 49° Northeast 454 522 33,000  Level Indianapolis Center
Mon 07:13:09 PM 36.7914 -82.5594 48° Northeast 461 531 33,000  Level Indianapolis Center
Mon 07:14:11 PM 36.8753 -82.4400 49° Northeast 461 531 33,000  Level Indianapolis Center
Mon 07:15:12 PM 36.9733 -82.3003 49° Northeast 460 529 33,000  Level Indianapolis Center
Mon 07:16:14 PM 37.0564 -82.1792 49° Northeast 460 529 33,000  Level Indianapolis Center
Mon 07:17:16 PM 37.1394 -82.0614 48° Northeast 454 522 33,000  Level Indianapolis Center
Mon 07:18:18 PM 37.2231 -81.9411 49° Northeast 456 525 33,000  Level Indianapolis Center
Mon 07:19:20 PM 37.3056 -81.8203 49° Northeast 456 525 33,000  Level Indianapolis Center
Mon 07:20:22 PM 37.3892 -81.6981 49° Northeast 459 528 33,000  Level Indianapolis Center
Mon 07:21:24 PM 37.4872 -81.5547 49° Northeast 462 532 33,000  Level Indianapolis Center
Mon 07:22:25 PM 37.5650 -81.4419 49° Northeast 463 533 33,000  Level Indianapolis Center
Mon 07:23:27 PM 37.6458 -81.3236 49° Northeast 459 528 33,000  Level Indianapolis Center
Mon 07:24:29 PM 37.7422 -81.1789 50° Northeast 460 529 33,000  Level Indianapolis Center
Mon 07:25:31 PM 37.7872 -81.0350 68° East 462 532 33,000  Level Indianapolis Center
Mon 07:26:33 PM 37.7967 -80.8753 86° East 466 536 33,000  Level Indianapolis Center
Mon 07:27:34 PM 37.8100 -80.6850 85° East 466 536 33,000  Level Indianapolis Center
Mon 07:28:17 PM 37.8167 -80.5944 85° East 459 528 33,000  Level Washington Center
Mon 07:29:18 PM 37.8253 -80.4319 86° East 459 528 33,000  Level Washington Center
Mon 07:30:19 PM 37.8361 -80.2669 85° East 459 528 33,000  Level Washington Center
Mon 07:31:19 PM 37.8472 -80.0861 85° East 459 528 33,000  Level Washington Center
Mon 07:32:17 PM 37.8575 -79.9186 86° East 459 528 33,000  Level Washington Center
Mon 07:33:17 PM 37.8675 -79.7533 86° East 459 528 33,000  Level Washington Center
Mon 07:34:18 PM 37.8772 -79.5881 86° East 459 528 33,000  Level Washington Center
Mon 07:35:18 PM 37.8869 -79.4228 86° East 464 534 33,000  Level Washington Center
Mon 07:36:19 PM 37.8958 -79.2706 86° East 472 543 33,000  Level Washington Center
Mon 07:37:17 PM 37.8989 -79.1025 89° East 477 549 33,000  Level Washington Center
Mon 07:38:17 PM 37.8594 -78.9453 108° East 462 532 33,000  Level Washington Center
Mon 07:39:18 PM 37.8136 -78.7908 111° Southeast 462 532 33,000  Level Washington Center
Mon 07:40:16 PM 37.7697 -78.6367 110° East 468 539 33,000  Level Washington Center
Mon 07:41:18 PM 37.7197 -78.4664 110° East 475 547 33,000  Level Washington Center
Mon 07:42:18 PM 37.6753 -78.3128 110° East 475 547 33,000  Level Washington Center
Mon 07:43:19 PM 37.6406 -78.1881 109° East 470 541 33,000  Level Washington Center
Mon 07:44:19 PM 37.5875 -78.0239 112° Southeast 470 541 33,000  Level Washington Center
Mon 07:45:16 PM 37.5425 -77.8706 110° East 470 541 33,000  Level Washington Center
Mon 07:46:17 PM 37.5208 -77.6867 98° East 470 541 33,000  Level Washington Center
Mon 07:47:19 PM 37.5092 -77.5186 95° East 475 547 33,000  Level Washington Center
Mon 07:48:19 PM 37.4508 -77.3758 117° Southeast 456 525 33,000  Level Washington Center
Mon 07:49:19 PM 37.3797 -77.2461 125° Southeast 451 519 33,000  Level Washington Center
Mon 07:50:16 PM 37.3381 -77.0833 108° East 467 537 33,000  Level Washington Center
Mon 07:51:17 PM 37.3608 -76.9269 80° East 500 575 33,000  Level Washington Center
Mon 07:52:18 PM 37.4167 -76.7556 68° East 500 575 33,000  Level Washington Center
Mon 07:53:19 PM 37.4619 -76.5886 71° East 512 589 33,000  Level Washington Center
Mon 07:54:17 PM 37.5008 -76.4164 74° East 507 583 33,000  Level Washington Center
Mon 07:55:18 PM 37.5542 -76.2519 68° East 507 583 33,000 -50 Level Washington Center
Mon 07:56:18 PM 37.6631 -76.1375 40° Northeast 494 568 32,900 -50 Descending Washington Center
Mon 07:57:19 PM 37.7742 -76.0225 39° Northeast 494 568 32,900 50 Level Washington Center
Mon 07:58:17 PM 37.8808 -75.8969 43° Northeast 505 581 33,000 50 Climbing Washington Center
Mon 07:59:20 PM 38.0083 -75.7736 37° Northeast 518 596 33,000  Level Washington Center
Mon 08:00:17 PM 38.1147 -75.6497 42° Northeast 523 602 33,000  Level Washington Center
Mon 08:01:18 PM 38.2272 -75.5336 39° Northeast 523 602 33,000 -49 Level Washington Center
Mon 08:02:19 PM 38.3314 -75.4303 38° Northeast 523 602 32,900 -50 Descending Washington Center
Mon 08:03:19 PM 38.4397 -75.3133 40° Northeast 523 602 32,900  Level Washington Center
Mon 08:04:16 PM 38.5519 -75.1961 39° Northeast 518 596 32,900  Level Washington Center
Mon 08:05:17 PM 38.6619 -75.0839 39° Northeast 518 596 32,900  Level Washington Center
Mon 08:06:18 PM 38.7908 -74.9925 29° Northeast 518 596 32,900  Level Washington Center
Mon 08:07:19 PM 38.9217 -74.9167 24° Northeast 512 589 32,900 -1,373 Level Washington Center
Mon 08:08:16 PM 39.0525 -74.8378 25° Northeast 512 589 30,200 -2,593 Descending Washington Center
Mon 08:09:17 PM 39.1706 -74.7294 35° Northeast 512 589 27,800 -2,083 Descending Washington Center
Mon 08:10:17 PM 39.2781 -74.6103 41° Northeast 507 583 26,000 -2,090 Descending Washington Center
Mon 08:11:52 PM 39.4356 -74.4319 41° Northeast 478 550 22,400 -2,245 Descending New York Center
Mon 08:12:52 PM 39.5208 -74.2992 50° Northeast 472 543 20,200 -2,132 Descending New York Center
Mon 08:13:53 PM 39.6086 -74.1581 51° Northeast 465 535 18,100 -1,900 Descending New York Center
Mon 08:14:52 PM 39.6892 -74.0350 50° Northeast 447 514 16,400 -1,686 Descending New York Center
Mon 08:15:54 PM 39.7611 -73.9197 51° Northeast 430 495 14,700 -1,426 Descending New York Center
Mon 08:16:54 PM 39.8239 -73.8250 49° Northeast 400 460 13,500 -1,017 Descending New York Center
Mon 08:17:52 PM 39.8869 -73.7278 50° Northeast 369 425 12,700 -1,059 Descending New York Center
Mon 08:18:53 PM 39.9453 -73.6436 48° Northeast 333 383 11,400 -942 Descending New York Center
Mon 08:19:53 PM 40.0342 -73.5958 22° Northeast 306 352 10,800 -1,091 Descending New York Center
Mon 08:20:54 PM 40.1075 -73.5744 13° North 301 346 9,200 -1,627 Descending New York Center
Mon 08:21:51 PM 40.1956 -73.5536 10° North 295 339 7,600 -1,475 Descending New York Center
Mon 08:22:52 PM 40.2664 -73.5564 358° North 287 330 6,300 -1,388 Descending New York Center
Mon 08:23:52 PM 40.3497 -73.5489 North 281 323 4,800 -1,485 Descending New York Center
Mon 08:24:29 PM 40.4000 -73.5333 13° North 265 305 3,900 -1,113 Descending New York TRACON
Mon 08:25:29 PM 40.4667 -73.5167 11° North 255 293 3,000 -900 Descending New York TRACON

Login

Don't have an account? Register now (free) for customized features, flight alerts, and more!